Time;durP1;ratioP1;P1;durP2;ratioP2;P2;SDS_P1;SDS_P2;PMS_P1;PMS_P2;Temp;Humidity;BMP_temperature;BMP_pressure;BME280_temperature;BME280_humidity;BME280_pressure;Samples;Min_cycle;Max_cycle;Signal;HPM_P1;HPM_P2
2021/10/26 00:00:29;;;;;;;14.23;4.63;;;;;;;;;;5015859;28;20050;-78
2021/10/26 00:02:55;;;;;;;12.73;6.22;;;;;;;;;;5007261;28;20482;-77
2021/10/26 00:05:21;;;;;;;22.42;9.65;;;;;;;;;;5014577;28;20445;-77
2021/10/26 00:07:47;;;;;;;28.33;14.57;;;;;;;;;;5017396;28;20081;-77
2021/10/26 00:10:14;;;;;;;36.00;20.05;;;;;;;;;;5009805;28;20054;-78
2021/10/26 00:12:40;;;;;;;49.47;24.10;;;;;;;;;;5013302;28;20034;-78
2021/10/26 00:15:07;;;;;;;58.55;27.38;;;;;;;;;;5005519;28;20155;-78
2021/10/26 00:17:33;;;;;;;92.38;32.03;;;;;;;;;;5013109;28;20052;-78
2021/10/26 00:19:59;;;;;;;76.55;30.10;;;;;;;;;;5011432;28;20060;-78
2021/10/26 00:22:26;;;;;;;103.93;41.60;;;;;;;;;;5008975;28;20104;-78
2021/10/26 00:24:52;;;;;;;133.63;48.90;;;;;;;;;;5011807;28;20041;-78
2021/10/26 00:27:18;;;;;;;213.48;56.60;;;;;;;;;;5010926;28;20042;-78
2021/10/26 00:29:45;;;;;;;187.48;56.97;;;;;;;;;;5008706;28;20041;-77
2021/10/26 00:32:11;;;;;;;190.05;59.75;;;;;;;;;;5010926;28;20080;-77
2021/10/26 00:34:37;;;;;;;172.52;59.00;;;;;;;;;;5008856;28;20042;-78
2021/10/26 00:37:03;;;;;;;174.88;59.78;;;;;;;;;;5044300;28;20145;-78
2021/10/26 00:39:29;;;;;;;177.35;60.70;;;;;;;;;;5015195;28;20052;-78
2021/10/26 00:41:57;;;;;;;169.23;58.70;;;;;;;;;;5016631;28;20074;-78
2021/10/26 00:44:28;;;;;;;192.25;60.40;;;;;;;;;;5016294;28;20286;-78
2021/10/26 00:46:54;;;;;;;163.18;61.35;;;;;;;;;;5017771;28;20042;-78
2021/10/26 00:49:21;;;;;;;165.50;59.95;;;;;;;;;;5012614;28;20046;-78
2021/10/26 00:51:47;;;;;;;187.93;65.25;;;;;;;;;;5012370;28;20041;-78
2021/10/26 00:54:13;;;;;;;183.00;63.17;;;;;;;;;;5012443;28;20149;-78
2021/10/26 00:56:39;;;;;;;188.45;64.82;;;;;;;;;;5012431;28;20054;-78
2021/10/26 00:59:05;;;;;;;215.68;67.63;;;;;;;;;;5012528;28;20046;-78
2021/10/26 01:01:32;;;;;;;238.68;72.20;;;;;;;;;;5012265;28;20482;-78
2021/10/26 01:03:58;;;;;;;202.23;67.93;;;;;;;;;;5029970;28;20037;-78
2021/10/26 01:06:25;;;;;;;231.90;68.47;;;;;;;;;;5015231;28;20129;-78
2021/10/26 01:08:51;;;;;;;220.85;68.68;;;;;;;;;;5047773;28;20187;-78
2021/10/26 01:11:18;;;;;;;226.73;67.90;;;;;;;;;;5012658;28;20058;-78
2021/10/26 01:13:44;;;;;;;200.77;64.40;;;;;;;;;;5013731;28;20132;-78
2021/10/26 01:16:10;;;;;;;207.98;65.20;;;;;;;;;;5015755;28;20477;-78
2021/10/26 01:18:37;;;;;;;193.95;64.10;;;;;;;;;;5010486;28;20050;-78
2021/10/26 01:21:03;;;;;;;215.55;66.90;;;;;;;;;;4998137;28;20042;-78
2021/10/26 01:23:30;;;;;;;222.10;66.57;;;;;;;;;;5012634;28;20421;-78
2021/10/26 01:25:56;;;;;;;210.80;59.95;;;;;;;;;;5014246;28;20068;-78
2021/10/26 01:28:22;;;;;;;203.55;59.55;;;;;;;;;;5010255;28;20042;-78
2021/10/26 01:30:49;;;;;;;163.02;55.45;;;;;;;;;;5026976;28;20405;-78
2021/10/26 01:33:15;;;;;;;151.70;51.95;;;;;;;;;;5011611;28;20459;-78
2021/10/26 01:35:41;;;;;;;151.88;53.08;;;;;;;;;;5011411;28;20034;-78
2021/10/26 01:38:08;;;;;;;135.75;51.40;;;;;;;;;;5010414;28;20129;-78
2021/10/26 01:40:36;;;;;;;160.10;55.70;;;;;;;;;;5010216;28;20104;-78
2021/10/26 01:43:03;;;;;;;173.82;57.22;;;;;;;;;;5009154;28;20097;-78
2021/10/26 01:45:29;;;;;;;174.63;57.45;;;;;;;;;;5008473;28;20049;-78
2021/10/26 01:47:56;;;;;;;172.32;58.42;;;;;;;;;;5014265;28;20080;-78
2021/10/26 01:50:22;;;;;;;217.07;63.85;;;;;;;;;;5014995;28;20089;-78
2021/10/26 01:52:49;;;;;;;178.00;58.17;;;;;;;;;;5015336;28;20090;-78
2021/10/26 01:55:18;;;;;;;211.13;62.38;;;;;;;;;;5024823;28;20141;-77
2021/10/26 01:57:44;;;;;;;197.93;62.25;;;;;;;;;;5014004;28;20054;-78
2021/10/26 02:00:11;;;;;;;204.63;64.22;;;;;;;;;;5010366;28;20053;-78
2021/10/26 02:02:37;;;;;;;190.40;61.53;;;;;;;;;;5011968;28;20038;-78
2021/10/26 02:05:04;;;;;;;195.88;61.47;;;;;;;;;;5008718;28;21587;-78
2021/10/26 02:07:31;;;;;;;194.40;62.92;;;;;;;;;;5011250;28;20372;-78
2021/10/26 02:09:57;;;;;;;195.27;58.58;;;;;;;;;;5009075;28;20041;-78
2021/10/26 02:12:23;;;;;;;180.73;58.83;;;;;;;;;;5009630;28;20041;-77
2021/10/26 02:14:50;;;;;;;182.07;56.63;;;;;;;;;;5008716;28;20056;-78
2021/10/26 02:17:16;;;;;;;156.85;54.42;;;;;;;;;;5012281;28;20660;-78
2021/10/26 02:19:42;;;;;;;137.57;50.78;;;;;;;;;;5044054;28;20045;-78
2021/10/26 02:22:09;;;;;;;132.32;48.58;;;;;;;;;;4992892;28;20065;-77
2021/10/26 02:24:35;;;;;;;135.60;48.70;;;;;;;;;;5011934;28;20375;-77
2021/10/26 02:27:01;;;;;;;129.60;48.38;;;;;;;;;;5012726;28;20482;-78
2021/10/26 02:29:27;;;;;;;124.10;50.33;;;;;;;;;;5010147;28;20038;-78
2021/10/26 02:31:54;;;;;;;133.80;51.60;;;;;;;;;;5010001;28;20140;-77
2021/10/26 02:34:20;;;;;;;136.48;50.95;;;;;;;;;;5010705;28;20046;-78
2021/10/26 02:36:47;;;;;;;140.73;53.60;;;;;;;;;;5020248;28;20054;-78
2021/10/26 02:39:13;;;;;;;156.65;52.67;;;;;;;;;;5002014;28;20378;-78
2021/10/26 02:41:39;;;;;;;134.80;52.35;;;;;;;;;;5023170;28;20042;-78
2021/10/26 02:44:06;;;;;;;128.80;51.63;;;;;;;;;;5026281;28;20379;-78
2021/10/26 02:46:32;;;;;;;122.38;50.03;;;;;;;;;;5011465;28;20037;-78
2021/10/26 02:48:58;;;;;;;124.50;51.03;;;;;;;;;;5010890;28;20045;-78
2021/10/26 02:51:24;;;;;;;127.55;51.92;;;;;;;;;;5010494;28;20043;-78
2021/10/26 02:53:51;;;;;;;112.75;49.70;;;;;;;;;;5010283;28;20096;-78
2021/10/26 02:56:17;;;;;;;115.78;49.83;;;;;;;;;;5010852;28;20129;-78
2021/10/26 02:58:44;;;;;;;98.82;46.22;;;;;;;;;;5011324;28;20053;-78
2021/10/26 03:01:11;;;;;;;96.03;45.17;;;;;;;;;;5006703;28;20034;-78
2021/10/26 03:03:37;;;;;;;102.30;46.90;;;;;;;;;;5009887;28;20045;-77
2021/10/26 03:06:04;;;;;;;94.97;45.65;;;;;;;;;;5010156;28;20107;-78
2021/10/26 03:08:30;;;;;;;90.70;44.40;;;;;;;;;;5012093;28;20080;-78
2021/10/26 03:10:56;;;;;;;92.78;44.03;;;;;;;;;;5009308;28;20132;-78
2021/10/26 03:13:23;;;;;;;89.22;45.85;;;;;;;;;;5008202;28;20053;-78
2021/10/26 03:15:49;;;;;;;99.97;44.63;;;;;;;;;;5006655;28;20034;-78
2021/10/26 03:18:15;;;;;;;95.57;46.40;;;;;;;;;;5011557;28;20050;-78
2021/10/26 03:20:42;;;;;;;98.85;47.22;;;;;;;;;;5023660;28;20042;-78
2021/10/26 03:23:08;;;;;;;86.88;47.40;;;;;;;;;;5010268;28;20115;-78
2021/10/26 03:25:34;;;;;;;113.05;50.47;;;;;;;;;;5008962;28;20053;-78
2021/10/26 03:28:01;;;;;;;105.95;50.53;;;;;;;;;;5010003;28;20450;-78
2021/10/26 03:30:27;;;;;;;115.22;50.58;;;;;;;;;;5007995;28;20046;-78
2021/10/26 03:32:53;;;;;;;110.45;51.47;;;;;;;;;;5011195;28;20042;-77
2021/10/26 03:35:19;;;;;;;104.18;51.95;;;;;;;;;;5003861;28;20135;-78
2021/10/26 03:37:45;;;;;;;121.45;53.50;;;;;;;;;;5003381;28;20042;-78
2021/10/26 03:40:12;;;;;;;131.85;53.80;;;;;;;;;;5007120;28;20045;-78
2021/10/26 03:42:39;;;;;;;107.32;53.30;;;;;;;;;;5008227;28;20458;-78
2021/10/26 03:45:05;;;;;;;129.77;54.90;;;;;;;;;;5009844;28;20465;-77
2021/10/26 03:47:32;;;;;;;143.23;58.97;;;;;;;;;;5010705;28;20048;-78
2021/10/26 03:49:59;;;;;;;136.63;61.22;;;;;;;;;;5011619;28;20129;-77
2021/10/26 03:52:25;;;;;;;127.53;59.08;;;;;;;;;;5010423;28;20052;-78
2021/10/26 03:54:55;;;;;;;135.85;61.40;;;;;;;;;;5009451;28;20058;-78
2021/10/26 03:57:21;;;;;;;136.65;60.75;;;;;;;;;;5009436;28;20049;-78
2021/10/26 03:59:47;;;;;;;147.02;61.50;;;;;;;;;;5008984;28;20046;-78
2021/10/26 04:02:20;;;;;;;159.88;65.45;;;;;;;;;;5009045;28;20056;-78
2021/10/26 04:04:46;;;;;;;142.25;62.38;;;;;;;;;;5010195;28;20053;-78
2021/10/26 04:07:13;;;;;;;160.63;63.17;;;;;;;;;;5009337;28;20512;-78
2021/10/26 04:09:49;;;;;;;137.65;61.30;;;;;;;;;;5007291;28;20316;-78
2021/10/26 04:12:23;;;;;;;157.05;60.92;;;;;;;;;;5026048;28;20054;-78
2021/10/26 04:14:49;;;;;;;151.75;59.42;;;;;;;;;;5009577;28;20065;-78
2021/10/26 04:17:16;;;;;;;139.10;56.78;;;;;;;;;;5005354;28;20502;-78
2021/10/26 04:19:42;;;;;;;132.68;55.85;;;;;;;;;;5008506;28;20501;-78
2021/10/26 04:22:08;;;;;;;144.13;56.08;;;;;;;;;;5009076;28;20407;-78
2021/10/26 04:24:34;;;;;;;116.13;51.60;;;;;;;;;;5005253;28;20041;-78
2021/10/26 04:27:01;;;;;;;112.20;48.65;;;;;;;;;;5011059;28;20041;-78
2021/10/26 04:29:27;;;;;;;126.32;47.65;;;;;;;;;;5008198;28;20046;-78
2021/10/26 04:31:53;;;;;;;309.70;50.10;;;;;;;;;;5009986;28;20512;-78
2021/10/26 04:34:19;;;;;;;669.47;61.97;;;;;;;;;;5009204;28;20046;-78
2021/10/26 04:36:46;;;;;;;693.40;58.65;;;;;;;;;;5003684;28;20148;-77
2021/10/26 04:39:12;;;;;;;597.97;49.05;;;;;;;;;;5006870;28;20052;-78
2021/10/26 04:41:38;;;;;;;389.48;39.88;;;;;;;;;;4989009;28;20052;-78
2021/10/26 04:44:04;;;;;;;477.60;43.25;;;;;;;;;;5007687;28;20046;-78
2021/10/26 04:46:31;;;;;;;918.83;69.88;;;;;;;;;;5007298;28;20057;-79
2021/10/26 04:48:57;;;;;;;703.75;53.67;;;;;;;;;;5008872;28;20107;-79
2021/10/26 04:51:23;;;;;;;665.75;48.60;;;;;;;;;;5003727;28;20042;-77
2021/10/26 04:53:50;;;;;;;557.38;43.58;;;;;;;;;;5008493;28;20057;-78
2021/10/26 04:56:16;;;;;;;532.83;42.10;;;;;;;;;;5005679;28;20466;-76
2021/10/26 04:58:42;;;;;;;595.00;41.80;;;;;;;;;;5005976;28;20054;-77
2021/10/26 05:01:08;;;;;;;654.72;47.67;;;;;;;;;;5024042;28;20052;-87
2021/10/26 05:03:34;;;;;;;796.75;48.47;;;;;;;;;;5008176;28;20498;-79
2021/10/26 05:06:02;;;;;;;674.75;48.58;;;;;;;;;;5009033;28;20068;-78
2021/10/26 05:08:29;;;;;;;681.65;46.28;;;;;;;;;;5041042;28;20092;-78
2021/10/26 05:10:55;;;;;;;895.22;59.75;;;;;;;;;;5004676;28;20046;-79
2021/10/26 05:13:22;;;;;;;769.13;49.60;;;;;;;;;;5008717;28;20053;-79
2021/10/26 05:15:48;;;;;;;678.25;44.83;;;;;;;;;;5009256;28;20069;-77
2021/10/26 05:18:15;;;;;;;632.88;39.97;;;;;;;;;;4988469;28;20498;-79
2021/10/26 05:20:43;;;;;;;376.15;30.77;;;;;;;;;;5007944;28;20440;-79
2021/10/26 05:23:10;;;;;;;577.25;39.10;;;;;;;;;;5008800;28;20053;-79
2021/10/26 05:25:37;;;;;;;480.17;39.80;;;;;;;;;;5011622;28;20049;-79
2021/10/26 05:28:03;;;;;;;528.05;34.00;;;;;;;;;;5005008;28;20482;-79
2021/10/26 05:30:30;;;;;;;485.70;36.78;;;;;;;;;;5015262;28;20065;-78
2021/10/26 05:32:56;;;;;;;661.83;45.70;;;;;;;;;;5045717;28;20052;-79
2021/10/26 05:35:22;;;;;;;575.88;40.40;;;;;;;;;;5012736;28;20053;-79
2021/10/26 05:37:49;;;;;;;620.30;37.38;;;;;;;;;;5029123;28;20445;-78
2021/10/26 05:40:15;;;;;;;658.63;44.28;;;;;;;;;;5012115;28;20054;-78
2021/10/26 05:42:41;;;;;;;631.65;42.70;;;;;;;;;;5011838;28;20046;-78
2021/10/26 05:45:07;;;;;;;645.38;42.65;;;;;;;;;;5012961;28;20489;-79
2021/10/26 05:47:34;;;;;;;615.42;40.30;;;;;;;;;;5028138;28;20054;-79
2021/10/26 05:50:00;;;;;;;685.30;40.53;;;;;;;;;;5028398;28;20480;-79
2021/10/26 05:52:26;;;;;;;509.67;39.50;;;;;;;;;;5028321;28;20037;-79
2021/10/26 05:54:52;;;;;;;630.28;46.90;;;;;;;;;;5011985;28;20398;-79
2021/10/26 05:57:18;;;;;;;636.88;50.00;;;;;;;;;;5012049;28;20530;-79
2021/10/26 05:59:44;;;;;;;481.02;42.47;;;;;;;;;;5028155;28;20052;-79
2021/10/26 06:02:10;;;;;;;384.92;44.80;;;;;;;;;;4995918;28;20432;-79
2021/10/26 06:04:37;;;;;;;389.58;45.42;;;;;;;;;;5011892;28;20129;-78
2021/10/26 06:07:03;;;;;;;194.00;42.95;;;;;;;;;;5012760;28;20042;-78
2021/10/26 06:09:31;;;;;;;238.75;46.67;;;;;;;;;;5012322;28;20077;-79
2021/10/26 06:12:00;;;;;;;351.33;52.92;;;;;;;;;;5012990;28;20045;-82
2021/10/26 06:14:27;;;;;;;307.52;52.08;;;;;;;;;;5011051;28;20517;-83
2021/10/26 06:16:54;;;;;;;239.63;54.03;;;;;;;;;;5013351;28;20052;-78
2021/10/26 06:19:21;;;;;;;435.85;64.57;;;;;;;;;;5009087;28;20375;-76
2021/10/26 06:21:48;;;;;;;472.23;65.07;;;;;;;;;;5027776;28;20046;-76
2021/10/26 06:24:14;;;;;;;560.15;75.60;;;;;;;;;;5027829;28;20065;-78
2021/10/26 06:26:40;;;;;;;533.67;75.97;;;;;;;;;;5011634;28;20034;-78
2021/10/26 06:29:08;;;;;;;782.47;88.55;;;;;;;;;;5027431;28;20133;-78
2021/10/26 06:31:34;;;;;;;684.17;83.80;;;;;;;;;;5012110;28;20130;-77
2021/10/26 06:34:01;;;;;;;580.15;81.97;;;;;;;;;;5011495;28;20117;-77
2021/10/26 06:36:27;;;;;;;522.95;78.78;;;;;;;;;;5010304;28;20092;-78
2021/10/26 06:38:53;;;;;;;539.95;79.53;;;;;;;;;;5011902;28;20049;-77
2021/10/26 06:41:20;;;;;;;466.60;76.60;;;;;;;;;;5011469;28;20038;-77
2021/10/26 06:43:47;;;;;;;390.65;67.95;;;;;;;;;;5010808;28;20046;-77
2021/10/26 06:46:14;;;;;;;403.30;70.00;;;;;;;;;;5011388;28;20116;-78
2021/10/26 06:48:40;;;;;;;345.77;66.32;;;;;;;;;;5010947;28;20103;-78
2021/10/26 06:51:06;;;;;;;385.10;70.40;;;;;;;;;;5011459;28;20042;-78
2021/10/26 06:53:36;;;;;;;383.20;70.53;;;;;;;;;;5011695;28;20375;-78
2021/10/26 06:56:06;;;;;;;334.83;66.10;;;;;;;;;;5022377;28;20502;-78
2021/10/26 06:58:32;;;;;;;318.80;63.65;;;;;;;;;;5008543;28;20054;-77
2021/10/26 07:00:59;;;;;;;325.63;65.32;;;;;;;;;;5010807;28;20041;-78
2021/10/26 07:03:25;;;;;;;312.63;64.75;;;;;;;;;;4994179;28;20508;-78
2021/10/26 07:05:51;;;;;;;315.42;65.30;;;;;;;;;;5011135;28;20140;-78
2021/10/26 07:08:17;;;;;;;295.42;65.53;;;;;;;;;;5027391;28;20034;-75
2021/10/26 07:10:43;;;;;;;297.67;64.93;;;;;;;;;;4993541;28;20536;-74
2021/10/26 07:13:10;;;;;;;290.63;64.00;;;;;;;;;;5008643;28;20050;-74
2021/10/26 07:15:36;;;;;;;261.15;62.17;;;;;;;;;;5005868;28;20188;-74
2021/10/26 07:18:03;;;;;;;271.88;60.47;;;;;;;;;;5008896;28;20064;-74
2021/10/26 07:20:29;;;;;;;301.15;65.65;;;;;;;;;;5009474;28;20046;-74
2021/10/26 07:22:56;;;;;;;271.95;62.35;;;;;;;;;;5009503;28;20149;-74
2021/10/26 07:25:23;;;;;;;285.83;64.30;;;;;;;;;;5007238;28;20054;-74
2021/10/26 07:27:53;;;;;;;251.77;58.90;;;;;;;;;;5041665;28;20072;-74
2021/10/26 07:30:19;;;;;;;257.38;59.88;;;;;;;;;;5009855;28;20080;-74
2021/10/26 07:32:45;;;;;;;224.52;57.67;;;;;;;;;;5008255;28;20050;-74
2021/10/26 07:35:12;;;;;;;245.80;59.83;;;;;;;;;;5008965;28;20096;-74
2021/10/26 07:37:43;;;;;;;230.05;57.30;;;;;;;;;;5008675;28;20410;-74
2021/10/26 07:40:10;;;;;;;236.90;57.67;;;;;;;;;;5024992;28;20406;-74
2021/10/26 07:42:36;;;;;;;243.30;59.85;;;;;;;;;;5025213;28;20046;-74
2021/10/26 07:45:02;;;;;;;201.80;55.17;;;;;;;;;;5009017;28;20075;-74
2021/10/26 07:47:29;;;;;;;231.55;59.75;;;;;;;;;;5010493;28;20092;-75
2021/10/26 07:49:56;;;;;;;219.70;57.75;;;;;;;;;;5044296;28;20041;-75
2021/10/26 07:52:22;;;;;;;223.80;60.13;;;;;;;;;;5010069;28;20057;-74
2021/10/26 07:54:52;;;;;;;208.48;57.05;;;;;;;;;;5007651;28;20058;-74
2021/10/26 07:57:20;;;;;;;183.80;54.20;;;;;;;;;;5005590;28;20466;-74
2021/10/26 07:59:46;;;;;;;198.95;55.38;;;;;;;;;;5006181;28;20054;-74
2021/10/26 08:02:14;;;;;;;165.38;52.72;;;;;;;;;;5006525;28;20379;-74
2021/10/26 08:04:43;;;;;;;166.55;53.55;;;;;;;;;;5007933;28;20474;-74
2021/10/26 08:07:10;;;;;;;147.68;50.58;;;;;;;;;;5040511;28;20046;-75
2021/10/26 08:09:36;;;;;;;161.00;52.50;;;;;;;;;;5039538;28;20049;-74
2021/10/26 08:12:02;;;;;;;166.20;52.53;;;;;;;;;;5035943;28;20129;-75
2021/10/26 08:14:29;;;;;;;148.85;50.55;;;;;;;;;;5008323;28;20509;-74
2021/10/26 08:16:55;;;;;;;150.35;50.22;;;;;;;;;;5008103;28;20038;-74
2021/10/26 08:19:22;;;;;;;145.68;49.17;;;;;;;;;;5004675;28;20136;-75
2021/10/26 08:21:49;;;;;;;136.10;48.25;;;;;;;;;;5006661;28;20465;-74
2021/10/26 08:24:19;;;;;;;127.05;44.83;;;;;;;;;;5007947;28;20100;-74
2021/10/26 08:26:55;;;;;;;112.57;43.95;;;;;;;;;;5040652;28;20378;-74
2021/10/26 08:32:24;;;;;;;97.60;38.10;;;;;;;;;;5006763;28;20517;-74
2021/10/26 08:37:43;;;;;;;77.72;34.38;;;;;;;;;;5008771;28;20064;-74
2021/10/26 08:40:09;;;;;;;58.10;28.05;;;;;;;;;;5023978;28;20054;-75
2021/10/26 08:42:36;;;;;;;70.47;28.65;;;;;;;;;;5006459;28;20147;-74
2021/10/26 08:45:03;;;;;;;62.75;28.10;;;;;;;;;;5007170;28;20171;-75
2021/10/26 08:47:30;;;;;;;54.17;26.15;;;;;;;;;;5007680;28;20038;-75
2021/10/26 08:49:57;;;;;;;58.60;27.30;;;;;;;;;;5007313;28;20486;-75
2021/10/26 08:52:24;;;;;;;44.42;23.48;;;;;;;;;;5007633;28;20461;-75
2021/10/26 08:54:52;;;;;;;51.28;22.25;;;;;;;;;;5006959;28;20090;-74
2021/10/26 08:57:18;;;;;;;47.45;22.15;;;;;;;;;;5023111;28;20124;-74
2021/10/26 08:59:44;;;;;;;58.88;25.52;;;;;;;;;;5012447;28;20057;-74
2021/10/26 09:02:10;;;;;;;48.88;23.13;;;;;;;;;;5010509;28;20125;-74
2021/10/26 09:04:38;;;;;;;48.88;21.42;;;;;;;;;;5010027;28;20076;-74
2021/10/26 09:07:05;;;;;;;35.28;18.52;;;;;;;;;;5010718;28;20045;-75
2021/10/26 09:09:33;;;;;;;34.30;17.48;;;;;;;;;;5043848;28;20177;-74
2021/10/26 09:17:33;;;;;;;35.95;16.10;;;;;;;;;;5010666;28;20100;-74
2021/10/26 09:20:01;;;;;;;40.13;16.13;;;;;;;;;;5011661;28;20038;-74
2021/10/26 09:22:28;;;;;;;38.90;16.42;;;;;;;;;;5027208;28;20126;-75
2021/10/26 09:24:57;;;;;;;36.88;16.33;;;;;;;;;;5009812;28;20049;-76
2021/10/26 09:27:24;;;;;;;39.70;16.92;;;;;;;;;;5027194;28;20049;-76
2021/10/26 09:29:50;;;;;;;39.92;18.15;;;;;;;;;;5010768;28;20038;-76
2021/10/26 09:32:18;;;;;;;39.20;17.75;;;;;;;;;;5009539;28;20491;-77
2021/10/26 09:34:46;;;;;;;42.25;18.90;;;;;;;;;;4994357;28;20115;-76
2021/10/26 09:37:15;;;;;;;44.17;19.33;;;;;;;;;;5009698;28;20046;-76
2021/10/26 09:39:41;;;;;;;46.58;19.85;;;;;;;;;;5010363;28;20042;-77
2021/10/26 09:42:09;;;;;;;40.30;19.98;;;;;;;;;;5029383;28;20038;-74
2021/10/26 09:44:36;;;;;;;46.92;22.17;;;;;;;;;;5028067;28;20505;-74
2021/10/26 09:47:05;;;;;;;44.55;19.85;;;;;;;;;;5028544;28;20038;-74
2021/10/26 09:49:38;;;;;;;45.13;22.88;;;;;;;;;;5013660;28;20048;-74
2021/10/26 09:52:11;;;;;;;39.03;18.75;;;;;;;;;;5012817;28;20113;-74
2021/10/26 09:54:37;;;;;;;45.78;20.75;;;;;;;;;;5012257;28;20050;-75
2021/10/26 09:57:05;;;;;;;45.22;22.25;;;;;;;;;;5012437;28;20053;-74
2021/10/26 09:59:31;;;;;;;52.17;22.60;;;;;;;;;;5012399;28;20058;-74
2021/10/26 10:01:57;;;;;;;39.47;20.75;;;;;;;;;;5012270;28;20037;-74
2021/10/26 10:04:31;;;;;;;45.42;22.15;;;;;;;;;;5013900;28;20049;-74
2021/10/26 10:06:58;;;;;;;54.60;22.42;;;;;;;;;;5008714;28;20033;-74
2021/10/26 10:09:24;;;;;;;47.80;23.50;;;;;;;;;;5011594;28;20116;-74
2021/10/26 10:11:57;;;;;;;57.17;24.65;;;;;;;;;;4993387;28;20054;-74
2021/10/26 10:14:24;;;;;;;57.60;25.20;;;;;;;;;;5011415;28;20053;-74
2021/10/26 10:16:54;;;;;;;51.33;25.25;;;;;;;;;;5012111;28;20045;-74
2021/10/26 10:19:21;;;;;;;59.63;27.20;;;;;;;;;;5010053;28;20524;-74
2021/10/26 10:21:50;;;;;;;57.67;26.05;;;;;;;;;;5027870;28;20394;-74
2021/10/26 10:24:17;;;;;;;53.08;27.30;;;;;;;;;;5011864;28;20046;-74
2021/10/26 10:26:49;;;;;;;44.88;23.75;;;;;;;;;;5011003;28;20046;-74
2021/10/26 10:29:15;;;;;;;56.30;24.45;;;;;;;;;;5011988;28;20405;-74
2021/10/26 10:31:42;;;;;;;58.25;26.48;;;;;;;;;;5012049;28;20034;-74
2021/10/26 10:34:09;;;;;;;61.67;28.25;;;;;;;;;;5010642;28;20107;-74
2021/10/26 10:36:40;;;;;;;68.53;28.42;;;;;;;;;;5011978;28;20037;-74
2021/10/26 10:39:08;;;;;;;72.10;28.02;;;;;;;;;;5011304;28;20176;-75
2021/10/26 10:41:37;;;;;;;60.50;27.63;;;;;;;;;;5010373;28;20504;-74
2021/10/26 10:44:05;;;;;;;55.50;26.60;;;;;;;;;;5013077;28;20371;-76
2021/10/26 10:46:36;;;;;;;62.55;27.60;;;;;;;;;;4995385;28;20386;-76
2021/10/26 10:49:23;;;;;;;48.83;25.95;;;;;;;;;;5010702;28;20050;-76
2021/10/26 10:51:59;;;;;;;55.90;26.50;;;;;;;;;;5010051;28;20121;-76
2021/10/26 10:54:37;;;;;;;47.08;23.75;;;;;;;;;;4994862;28;20537;-76
2021/10/26 10:57:17;;;;;;;41.60;21.27;;;;;;;;;;5011756;28;20046;-76
2021/10/26 10:59:45;;;;;;;39.85;22.25;;;;;;;;;;5010888;28;20465;-76
2021/10/26 11:02:28;;;;;;;39.45;21.33;;;;;;;;;;5010671;28;20367;-76
2021/10/26 11:04:55;;;;;;;41.92;21.95;;;;;;;;;;5012426;28;20120;-76
2021/10/26 11:07:46;;;;;;;37.20;19.48;;;;;;;;;;5007197;28;20038;-76
2021/10/26 11:10:14;;;;;;;35.08;18.67;;;;;;;;;;5009013;28;20050;-74
2021/10/26 11:12:42;;;;;;;36.58;18.63;;;;;;;;;;4994352;28;20157;-75
2021/10/26 11:15:11;;;;;;;28.13;15.93;;;;;;;;;;5027709;28;20046;-75
2021/10/26 11:17:43;;;;;;;29.35;17.20;;;;;;;;;;5007873;28;20042;-74
2021/10/26 11:20:11;;;;;;;33.50;16.15;;;;;;;;;;5012104;28;20115;-74
2021/10/26 11:22:46;;;;;;;33.00;16.25;;;;;;;;;;5010485;28;20102;-74
2021/10/26 11:25:38;;;;;;;26.35;15.05;;;;;;;;;;5010520;28;20433;-74
2021/10/26 11:28:12;;;;;;;29.80;15.23;;;;;;;;;;5010257;28;20148;-74
2021/10/26 11:30:42;;;;;;;26.15;14.50;;;;;;;;;;5009615;28;20060;-74
2021/10/26 11:33:10;;;;;;;26.58;14.45;;;;;;;;;;5010356;28;20490;-74
2021/10/26 11:36:03;;;;;;;25.65;15.45;;;;;;;;;;5010836;28;20389;-74
2021/10/26 11:38:31;;;;;;;27.52;14.55;;;;;;;;;;5009327;28;20049;-74
2021/10/26 11:40:58;;;;;;;34.28;16.27;;;;;;;;;;5010403;28;20046;-74
2021/10/26 11:43:24;;;;;;;30.85;15.80;;;;;;;;;;5011725;28;20056;-74
2021/10/26 11:45:58;;;;;;;31.05;15.65;;;;;;;;;;5009736;28;20132;-74
2021/10/26 11:48:37;;;;;;;25.58;14.82;;;;;;;;;;5010445;28;20053;-74
2021/10/26 11:51:20;;;;;;;26.23;15.18;;;;;;;;;;5010904;28;20045;-74
2021/10/26 11:53:47;;;;;;;31.98;15.23;;;;;;;;;;5010343;28;20367;-84
2021/10/26 11:56:19;;;;;;;28.95;15.07;;;;;;;;;;5009933;28;20068;-75
2021/10/26 11:58:56;;;;;;;26.88;15.00;;;;;;;;;;5009338;28;20131;-75
2021/10/26 12:01:33;;;;;;;29.25;14.93;;;;;;;;;;5009932;28;20525;-75
2021/10/26 12:04:00;;;;;;;31.05;17.20;;;;;;;;;;5003251;28;20133;-86
2021/10/26 12:06:32;;;;;;;25.35;16.20;;;;;;;;;;4993473;28;20048;-75
2021/10/26 12:09:02;;;;;;;33.35;15.93;;;;;;;;;;5000965;28;20412;-75
2021/10/26 12:11:32;;;;;;;25.60;15.93;;;;;;;;;;5007165;28;20465;-75
2021/10/26 12:14:11;;;;;;;26.13;16.92;;;;;;;;;;4999213;28;20045;-76
2021/10/26 12:16:38;;;;;;;32.00;15.90;;;;;;;;;;5004538;28;20053;-75
2021/10/26 12:19:04;;;;;;;24.95;15.00;;;;;;;;;;5005350;28;20516;-75
2021/10/26 12:21:30;;;;;;;26.80;16.40;;;;;;;;;;4993591;28;20092;-75
2021/10/26 12:23:57;;;;;;;32.22;16.05;;;;;;;;;;4999742;28;20398;-73
2021/10/26 12:26:23;;;;;;;26.70;14.95;;;;;;;;;;5003686;28;20038;-75
2021/10/26 12:28:54;;;;;;;25.52;16.25;;;;;;;;;;5004084;28;20070;-75
2021/10/26 12:31:23;;;;;;;33.53;17.13;;;;;;;;;;4996844;28;20066;-75
2021/10/26 12:33:58;;;;;;;29.55;16.50;;;;;;;;;;5002886;28;20444;-74
2021/10/26 12:36:25;;;;;;;33.70;16.73;;;;;;;;;;5023726;28;20038;-75
2021/10/26 12:39:00;;;;;;;34.42;17.00;;;;;;;;;;5013106;28;20440;-74
2021/10/26 12:41:28;;;;;;;31.17;18.27;;;;;;;;;;4999594;28;20406;-74
2021/10/26 12:44:02;;;;;;;29.80;18.17;;;;;;;;;;5004573;28;20821;-74
2021/10/26 12:46:29;;;;;;;31.40;18.08;;;;;;;;;;4997105;28;20057;-74
2021/10/26 12:49:06;;;;;;;33.97;20.05;;;;;;;;;;4994503;28;20541;-74
2021/10/26 12:51:32;;;;;;;35.55;20.73;;;;;;;;;;5004806;28;20053;-73
2021/10/26 12:54:11;;;;;;;38.42;21.30;;;;;;;;;;5007504;28;20057;-74
2021/10/26 12:56:45;;;;;;;35.10;19.83;;;;;;;;;;5002565;28;20053;-74
2021/10/26 12:59:11;;;;;;;29.83;19.52;;;;;;;;;;5005758;28;20049;-74
2021/10/26 13:01:38;;;;;;;37.00;20.25;;;;;;;;;;5022272;28;20157;-74
2021/10/26 13:04:09;;;;;;;31.33;19.00;;;;;;;;;;4990900;28;20108;-74
2021/10/26 13:06:37;;;;;;;35.03;19.73;;;;;;;;;;5006122;28;20073;-74
2021/10/26 13:09:05;;;;;;;33.78;18.73;;;;;;;;;;5002773;28;20101;-74
2021/10/26 13:11:32;;;;;;;33.50;18.85;;;;;;;;;;5006468;28;20049;-74
2021/10/26 13:14:00;;;;;;;31.42;19.50;;;;;;;;;;5039602;28;20046;-74
2021/10/26 13:16:29;;;;;;;26.50;17.92;;;;;;;;;;5007789;28;20414;-74
2021/10/26 13:19:08;;;;;;;29.63;18.67;;;;;;;;;;5006566;28;20054;-74
2021/10/26 13:21:34;;;;;;;23.38;17.95;;;;;;;;;;5023495;28;20084;-74
2021/10/26 13:24:00;;;;;;;26.38;18.92;;;;;;;;;;5007706;28;20445;-74
2021/10/26 13:26:26;;;;;;;24.23;17.73;;;;;;;;;;5006896;28;20042;-74
2021/10/26 13:28:52;;;;;;;25.23;17.83;;;;;;;;;;4990275;28;20080;-74
2021/10/26 13:31:21;;;;;;;25.27;19.42;;;;;;;;;;5005693;28;20500;-74
2021/10/26 13:33:47;;;;;;;24.63;17.80;;;;;;;;;;5007456;28;20046;-74
2021/10/26 13:36:15;;;;;;;23.20;18.20;;;;;;;;;;5006417;28;20490;-74
2021/10/26 13:38:42;;;;;;;22.50;15.85;;;;;;;;;;5005669;28;20228;-74
2021/10/26 13:41:09;;;;;;;23.00;17.38;;;;;;;;;;5006458;28;20038;-73
2021/10/26 13:43:36;;;;;;;28.20;19.40;;;;;;;;;;5007297;28;20038;-74
2021/10/26 13:46:02;;;;;;;31.13;19.70;;;;;;;;;;5009953;28;20038;-74
2021/10/26 13:48:30;;;;;;;30.88;21.00;;;;;;;;;;5010567;28;20038;-74
2021/10/26 13:50:56;;;;;;;30.83;21.17;;;;;;;;;;5042063;28;20053;-74
2021/10/26 13:53:22;;;;;;;29.73;20.73;;;;;;;;;;5009840;28;20050;-74
2021/10/26 13:55:52;;;;;;;29.45;22.50;;;;;;;;;;5026471;28;20102;-74
2021/10/26 13:58:18;;;;;;;28.88;20.48;;;;;;;;;;5009599;28;20057;-74
2021/10/26 14:00:48;;;;;;;25.42;20.42;;;;;;;;;;4993812;28;20053;-74
2021/10/26 14:03:15;;;;;;;28.63;20.73;;;;;;;;;;5011083;28;20363;-74
2021/10/26 14:05:41;;;;;;;28.27;22.08;;;;;;;;;;5008950;28;20061;-74
2021/10/26 14:08:08;;;;;;;29.42;22.02;;;;;;;;;;5009408;28;20049;-74
2021/10/26 14:10:35;;;;;;;27.17;21.92;;;;;;;;;;5009788;28;20050;-74
2021/10/26 14:13:01;;;;;;;30.70;22.60;;;;;;;;;;5009145;28;20064;-74
2021/10/26 14:15:27;;;;;;;29.13;22.73;;;;;;;;;;5008571;28;20513;-73
2021/10/26 14:17:54;;;;;;;26.80;21.67;;;;;;;;;;5007080;28;20137;-74
2021/10/26 14:20:23;;;;;;;27.67;21.13;;;;;;;;;;5008648;28;20524;-74
2021/10/26 14:22:51;;;;;;;29.27;21.65;;;;;;;;;;4993825;28;20151;-74
2021/10/26 14:25:17;;;;;;;32.80;23.48;;;;;;;;;;5024505;28;20112;-74